Time;durP1;ratioP1;P1;durP2;ratioP2;P2;SDS_P1;SDS_P2;PMS_P1;PMS_P2;Temp;Humidity;BMP_temperature;BMP_pressure;BME280_temperature;BME280_humidity;BME280_pressure;Samples;Min_cycle;Max_cycle;Signal;HPM_P1;HPM_P2
2024/02/28 00:01:56;;;;;;;24.33;11.07;;;2.00;99.90;;;;;;5049890;28;20048;-68
2024/02/28 00:04:22;;;;;;;29.83;13.30;;;1.90;99.90;;;;;;5054618;28;20059;-68
2024/02/28 00:06:47;;;;;;;37.53;13.80;;;2.00;99.90;;;;;;5060308;28;20128;-68
2024/02/28 00:09:13;;;;;;;31.23;12.38;;;1.90;99.90;;;;;;5045074;28;20130;-68
2024/02/28 00:11:46;;;;;;;45.50;14.48;;;2.00;99.90;;;;;;5034444;28;20414;-68
2024/02/28 00:14:13;;;;;;;26.40;14.18;;;2.00;99.90;;;;;;5040015;28;20136;-68
2024/02/28 00:16:43;;;;;;;34.92;13.98;;;2.10;99.90;;;;;;5044127;28;20064;-69
2024/02/28 00:19:11;;;;;;;35.45;15.05;;;2.00;99.90;;;;;;5039902;28;20057;-68
2024/02/28 00:21:37;;;;;;;24.50;12.00;;;2.10;99.90;;;;;;5044785;28;20119;-68
2024/02/28 00:24:03;;;;;;;32.85;15.63;;;2.10;99.90;;;;;;5049570;28;20171;-68
2024/02/28 00:26:29;;;;;;;34.15;15.25;;;2.10;99.90;;;;;;5059977;28;20578;-68
2024/02/28 00:28:54;;;;;;;33.17;15.27;;;2.10;99.90;;;;;;5067678;28;20046;-68
2024/02/28 00:31:21;;;;;;;36.63;15.93;;;2.10;99.90;;;;;;5071702;28;20105;-68
2024/02/28 00:33:47;;;;;;;35.83;14.57;;;2.10;99.90;;;;;;5046909;28;20265;-68
2024/02/28 00:36:13;;;;;;;33.75;16.42;;;2.20;99.90;;;;;;5030226;28;20048;-68
2024/02/28 00:38:41;;;;;;;47.28;16.30;;;2.10;99.90;;;;;;5033534;28;20052;-69
2024/02/28 00:41:07;;;;;;;31.98;15.80;;;2.10;99.90;;;;;;5063254;28;20517;-68
2024/02/28 00:43:32;;;;;;;37.80;16.52;;;2.20;99.90;;;;;;5032952;28;20044;-68
2024/02/28 00:45:58;;;;;;;33.28;15.88;;;2.20;99.90;;;;;;5037737;28;20044;-68
2024/02/28 00:48:25;;;;;;;37.75;15.10;;;2.20;99.90;;;;;;5053480;28;20045;-68
2024/02/28 00:50:51;;;;;;;34.60;15.00;;;2.20;99.90;;;;;;5043671;28;20045;-68
2024/02/28 00:53:17;;;;;;;28.08;12.25;;;2.20;99.90;;;;;;5060476;28;20951;-68
2024/02/28 00:55:43;;;;;;;28.75;12.63;;;2.30;99.90;;;;;;5049056;28;20044;-68
2024/02/28 00:58:10;;;;;;;24.65;12.25;;;2.20;99.90;;;;;;5037511;28;20070;-68
2024/02/28 01:00:36;;;;;;;25.40;12.88;;;2.30;99.90;;;;;;5047555;28;20449;-68
2024/02/28 01:03:05;;;;;;;29.95;12.52;;;2.30;99.90;;;;;;5047398;28;20131;-68
2024/02/28 01:05:31;;;;;;;27.30;13.60;;;2.30;99.90;;;;;;5057079;28;20080;-68
2024/02/28 01:07:57;;;;;;;26.77;13.10;;;2.20;99.90;;;;;;5034548;28;20450;-68
2024/02/28 01:10:23;;;;;;;32.28;13.27;;;2.30;99.90;;;;;;5059906;28;20041;-69
2024/02/28 01:12:49;;;;;;;36.97;15.13;;;2.30;99.90;;;;;;5061446;28;20102;-69
2024/02/28 01:15:15;;;;;;;34.22;14.00;;;2.30;99.90;;;;;;5051929;28;20049;-69
2024/02/28 01:17:41;;;;;;;31.02;13.98;;;2.30;99.90;;;;;;5049369;28;20454;-68
2024/02/28 01:20:08;;;;;;;37.10;14.63;;;2.30;99.90;;;;;;5043904;28;20156;-68
2024/02/28 01:22:34;;;;;;;29.77;13.95;;;2.30;99.90;;;;;;5059197;28;20059;-68
2024/02/28 01:25:00;;;;;;;27.58;13.57;;;2.30;99.90;;;;;;5059918;28;20132;-68
2024/02/28 01:27:25;;;;;;;29.40;14.23;;;2.40;99.90;;;;;;5059732;28;20600;-68
2024/02/28 01:29:53;;;;;;;24.58;12.75;;;2.30;99.90;;;;;;5034452;28;20052;-68
2024/02/28 01:32:19;;;;;;;21.58;11.80;;;2.40;99.90;;;;;;5061547;28;20045;-69
2024/02/28 01:34:46;;;;;;;22.83;12.07;;;2.40;99.90;;;;;;5052843;28;20092;-68
2024/02/28 01:37:12;;;;;;;23.35;10.73;;;2.40;99.90;;;;;;5060260;28;20070;-68
2024/02/28 01:39:37;;;;;;;23.50;13.57;;;2.40;99.90;;;;;;5049185;28;20474;-68
2024/02/28 01:42:03;;;;;;;24.58;12.77;;;2.50;99.90;;;;;;5040177;28;20058;-68
2024/02/28 01:44:29;;;;;;;26.98;12.63;;;2.50;99.90;;;;;;5042814;28;20076;-68
2024/02/28 01:46:56;;;;;;;27.50;13.60;;;2.40;99.90;;;;;;5053084;28;20044;-68
2024/02/28 01:49:23;;;;;;;31.05;13.88;;;2.50;99.90;;;;;;5061928;28;20290;-68
2024/02/28 01:51:50;;;;;;;27.23;12.38;;;2.50;99.90;;;;;;5049638;28;20433;-68
2024/02/28 01:54:17;;;;;;;29.40;14.15;;;2.50;99.90;;;;;;5056176;28;20052;-68
2024/02/28 01:56:43;;;;;;;27.48;13.45;;;2.50;99.90;;;;;;5031766;28;20045;-68
2024/02/28 01:59:11;;;;;;;25.40;13.20;;;2.50;99.90;;;;;;5038723;28;20408;-68
2024/02/28 02:01:37;;;;;;;30.92;15.30;;;2.50;99.90;;;;;;5056943;28;20052;-68
2024/02/28 02:04:04;;;;;;;29.63;13.63;;;2.50;99.90;;;;;;5044250;28;20137;-69
2024/02/28 02:06:31;;;;;;;32.42;14.13;;;2.50;99.90;;;;;;5044460;28;20052;-68
2024/02/28 02:08:57;;;;;;;33.42;15.15;;;2.50;99.90;;;;;;5045049;28;20665;-68
2024/02/28 02:11:24;;;;;;;33.25;14.80;;;2.50;99.90;;;;;;5020945;28;1135854;-68
2024/02/28 02:13:51;;;;;;;33.22;15.48;;;2.60;99.90;;;;;;5066849;28;20048;-68
2024/02/28 02:16:17;;;;;;;36.30;15.70;;;2.60;99.90;;;;;;5048038;28;20052;-68
2024/02/28 02:18:44;;;;;;;37.85;15.10;;;2.60;99.90;;;;;;5049053;28;20226;-68
2024/02/28 02:21:12;;;;;;;33.25;14.18;;;2.60;99.90;;;;;;5063275;28;20129;-68
2024/02/28 02:23:41;;;;;;;28.55;13.15;;;2.60;99.90;;;;;;5066218;28;20062;-68
2024/02/28 02:26:07;;;;;;;30.60;14.10;;;2.60;99.90;;;;;;5064062;28;20048;-68
2024/02/28 02:28:33;;;;;;;29.13;13.65;;;2.60;99.90;;;;;;5055340;28;20106;-68
2024/02/28 02:30:58;;;;;;;37.38;14.10;;;2.70;99.90;;;;;;5044053;28;20519;-68
2024/02/28 02:33:24;;;;;;;33.13;14.10;;;2.70;99.90;;;;;;5044843;28;20060;-68
2024/02/28 02:35:51;;;;;;;32.92;15.27;;;2.70;99.90;;;;;;5064550;28;20048;-68
2024/02/28 02:38:17;;;;;;;33.92;15.65;;;2.60;99.90;;;;;;5030677;28;20119;-69
2024/02/28 02:40:42;;;;;;;34.28;14.75;;;2.70;99.90;;;;;;5041569;28;20638;-69
2024/02/28 02:43:09;;;;;;;35.65;15.43;;;2.70;99.90;;;;;;5059653;28;20056;-68
2024/02/28 02:45:35;;;;;;;39.58;16.63;;;2.70;99.90;;;;;;5060074;28;20550;-68
2024/02/28 02:48:01;;;;;;;32.72;15.07;;;2.70;99.90;;;;;;5053482;28;20072;-68
2024/02/28 02:50:27;;;;;;;32.78;14.57;;;2.70;99.90;;;;;;5054671;28;20044;-68
2024/02/28 02:52:52;;;;;;;34.25;16.13;;;2.70;99.90;;;;;;5057651;28;20053;-68
2024/02/28 02:55:18;;;;;;;31.75;14.63;;;2.70;99.90;;;;;;5053956;28;20373;-68
2024/02/28 02:57:44;;;;;;;32.78;13.73;;;2.80;99.90;;;;;;5039544;28;20476;-68
2024/02/28 03:00:10;;;;;;;32.95;15.75;;;2.70;99.90;;;;;;5048367;28;20040;-68
2024/02/28 03:02:39;;;;;;;39.47;15.82;;;2.80;99.90;;;;;;5053277;28;20048;-68
2024/02/28 03:05:06;;;;;;;33.20;14.40;;;2.70;99.90;;;;;;5043569;28;20479;-68
2024/02/28 03:07:32;;;;;;;34.78;15.60;;;2.70;99.90;;;;;;5040231;28;20522;-68
2024/02/28 03:09:58;;;;;;;30.90;14.88;;;2.70;99.90;;;;;;5043991;28;20090;-68
2024/02/28 03:12:24;;;;;;;35.42;14.68;;;2.80;99.90;;;;;;5030886;28;20052;-68
2024/02/28 03:14:50;;;;;;;31.60;14.43;;;2.80;99.90;;;;;;5059781;28;20477;-68
2024/02/28 03:17:16;;;;;;;35.95;15.63;;;2.80;99.90;;;;;;5040446;28;20131;-68
2024/02/28 03:19:42;;;;;;;29.65;14.88;;;2.70;99.90;;;;;;5053803;28;20527;-68
2024/02/28 03:22:08;;;;;;;31.25;14.07;;;2.80;99.90;;;;;;5060922;28;20056;-68
2024/02/28 03:24:37;;;;;;;33.70;15.13;;;2.70;99.90;;;;;;5050656;28;20037;-69
2024/02/28 03:27:03;;;;;;;32.42;14.00;;;2.90;99.90;;;;;;5041496;28;20048;-68
2024/02/28 03:29:29;;;;;;;27.35;14.18;;;2.70;99.90;;;;;;5054579;28;20046;-68
2024/02/28 03:31:55;;;;;;;26.17;11.82;;;2.80;99.90;;;;;;5030762;28;20049;-68
2024/02/28 03:34:21;;;;;;;24.42;12.40;;;2.80;99.90;;;;;;5040330;28;20048;-68
2024/02/28 03:36:47;;;;;;;29.20;13.60;;;2.70;99.90;;;;;;5028219;28;20043;-68
2024/02/28 03:39:13;;;;;;;21.98;11.32;;;2.80;99.90;;;;;;5027563;28;20045;-68
2024/02/28 03:41:39;;;;;;;29.13;12.90;;;2.80;99.90;;;;;;5048591;28;20163;-68
2024/02/28 03:44:05;;;;;;;26.15;13.02;;;2.90;99.90;;;;;;5049516;28;20513;-68
2024/02/28 03:46:31;;;;;;;29.73;14.50;;;2.70;99.90;;;;;;5034320;28;20048;-68
2024/02/28 03:48:57;;;;;;;27.00;13.68;;;2.80;99.90;;;;;;5052745;28;20033;-68
2024/02/28 03:51:22;;;;;;;29.50;13.68;;;2.80;99.90;;;;;;5033728;28;20123;-68
2024/02/28 03:53:48;;;;;;;25.92;13.18;;;2.80;99.90;;;;;;5042043;28;20135;-68
2024/02/28 03:56:24;;;;;;;28.60;13.48;;;2.80;99.90;;;;;;5024345;28;20126;-68
2024/02/28 03:58:50;;;;;;;26.30;12.27;;;2.80;99.90;;;;;;5047694;28;20048;-68
2024/02/28 04:01:16;;;;;;;30.10;14.13;;;2.80;99.90;;;;;;5059644;28;20087;-68
2024/02/28 04:03:42;;;;;;;34.10;14.55;;;2.80;99.90;;;;;;5055751;28;20042;-69
2024/02/28 04:06:08;;;;;;;28.27;13.43;;;2.80;99.90;;;;;;5009862;28;20048;-68
2024/02/28 04:08:33;;;;;;;28.63;14.23;;;2.80;99.90;;;;;;5057041;28;20106;-68
2024/02/28 04:10:59;;;;;;;27.70;13.82;;;2.80;99.90;;;;;;5060099;28;20040;-68
2024/02/28 04:13:25;;;;;;;29.92;13.23;;;2.90;99.90;;;;;;5055674;28;20055;-69
2024/02/28 04:15:51;;;;;;;25.75;13.80;;;2.80;99.90;;;;;;5033109;28;20080;-68
2024/02/28 04:18:17;;;;;;;33.92;15.35;;;2.80;99.90;;;;;;5045757;28;20041;-68
2024/02/28 04:20:43;;;;;;;33.53;14.52;;;2.90;99.90;;;;;;5054997;28;20044;-68
2024/02/28 04:23:09;;;;;;;32.97;13.35;;;2.80;99.90;;;;;;5056750;28;20445;-68
2024/02/28 04:25:35;;;;;;;33.80;15.38;;;2.90;99.90;;;;;;5034985;28;20745;-68
2024/02/28 04:28:02;;;;;;;33.72;14.82;;;2.90;99.90;;;;;;5064244;28;20044;-68
2024/02/28 04:30:28;;;;;;;31.02;15.60;;;2.90;99.90;;;;;;5061749;28;20048;-68
2024/02/28 04:32:54;;;;;;;32.95;16.00;;;2.80;99.90;;;;;;5033086;28;20139;-69
2024/02/28 04:35:20;;;;;;;39.78;15.68;;;2.90;99.90;;;;;;5057308;28;20546;-69
2024/02/28 04:37:48;;;;;;;35.42;15.02;;;2.80;99.90;;;;;;5055666;28;20041;-68
2024/02/28 04:40:15;;;;;;;33.70;13.40;;;2.90;99.90;;;;;;5044345;28;20388;-68
2024/02/28 04:42:41;;;;;;;31.73;14.68;;;2.80;99.90;;;;;;5039028;28;20498;-68
2024/02/28 04:45:07;;;;;;;35.13;13.63;;;2.80;99.90;;;;;;5062803;28;20123;-68
2024/02/28 04:47:33;;;;;;;31.55;14.43;;;2.80;99.90;;;;;;5055061;28;20479;-68
2024/02/28 04:49:59;;;;;;;28.50;12.35;;;2.80;99.90;;;;;;5043630;28;20089;-68
2024/02/28 04:52:25;;;;;;;39.72;14.48;;;2.80;99.90;;;;;;5074362;28;20105;-69
2024/02/28 04:54:51;;;;;;;28.48;14.07;;;2.70;99.90;;;;;;5061805;28;20097;-68
2024/02/28 04:57:17;;;;;;;32.30;14.20;;;2.80;99.90;;;;;;5056265;28;20040;-68
2024/02/28 04:59:44;;;;;;;32.70;13.95;;;2.90;99.90;;;;;;5052114;28;20338;-68
2024/02/28 05:02:10;;;;;;;28.90;14.43;;;2.90;99.90;;;;;;5057901;28;20048;-69
2024/02/28 05:04:36;;;;;;;34.08;14.27;;;2.90;99.90;;;;;;5044383;28;20502;-68
2024/02/28 05:07:02;;;;;;;30.25;15.10;;;2.80;99.90;;;;;;5039994;28;20040;-69
2024/02/28 05:09:28;;;;;;;28.95;13.93;;;2.90;99.90;;;;;;5045426;28;20045;-68
2024/02/28 05:11:54;;;;;;;28.52;14.25;;;2.90;99.90;;;;;;5052582;28;20059;-68
2024/02/28 05:14:20;;;;;;;30.10;14.73;;;2.90;99.90;;;;;;5035992;28;20433;-69
2024/02/28 05:16:47;;;;;;;27.83;14.10;;;2.80;99.90;;;;;;5051058;28;20088;-68
2024/02/28 05:19:13;;;;;;;30.90;13.88;;;2.90;99.90;;;;;;5059010;28;20048;-68
2024/02/28 05:21:41;;;;;;;30.00;13.65;;;2.90;99.90;;;;;;5038830;28;20053;-69
2024/02/28 05:24:07;;;;;;;29.75;14.05;;;2.90;99.90;;;;;;5051409;28;20044;-68
2024/02/28 05:26:35;;;;;;;27.92;12.52;;;2.80;99.90;;;;;;5061848;28;20377;-68
2024/02/28 05:29:02;;;;;;;30.60;14.07;;;2.90;99.90;;;;;;5053930;28;20048;-68
2024/02/28 05:31:28;;;;;;;23.25;11.93;;;2.90;99.90;;;;;;5061012;28;20134;-69
2024/02/28 05:33:56;;;;;;;28.85;14.50;;;2.90;99.90;;;;;;5053136;28;20148;-68
2024/02/28 05:36:29;;;;;;;28.60;14.20;;;2.90;99.90;;;;;;5061970;28;20033;-69
2024/02/28 05:38:57;;;;;;;26.42;13.85;;;2.90;99.90;;;;;;5055367;28;20561;-68
2024/02/28 05:41:23;;;;;;;26.92;13.00;;;2.90;99.90;;;;;;5032653;28;20107;-68
2024/02/28 05:43:49;;;;;;;29.27;13.35;;;2.90;99.90;;;;;;5057017;28;20048;-69
2024/02/28 05:46:16;;;;;;;29.98;13.52;;;2.90;99.90;;;;;;5045585;28;20049;-68
2024/02/28 05:48:43;;;;;;;31.63;14.07;;;2.90;99.90;;;;;;5051739;28;20041;-69
2024/02/28 05:51:08;;;;;;;31.77;14.98;;;2.90;99.90;;;;;;5062114;28;20167;-68
2024/02/28 05:53:35;;;;;;;27.98;13.75;;;2.90;99.90;;;;;;5075519;28;20443;-68
2024/02/28 05:56:12;;;;;;;30.38;14.38;;;3.00;99.90;;;;;;5056163;28;20084;-69
2024/02/28 05:58:39;;;;;;;32.30;15.57;;;2.90;99.90;;;;;;5051463;28;20052;-68
2024/02/28 06:01:05;;;;;;;25.75;12.15;;;3.00;99.90;;;;;;5022289;28;20055;-68
2024/02/28 06:03:30;;;;;;;31.58;15.05;;;3.00;99.90;;;;;;5042927;28;20044;-68
2024/02/28 06:05:57;;;;;;;29.10;14.82;;;3.00;99.90;;;;;;5053924;28;20169;-69
2024/02/28 06:08:23;;;;;;;30.08;14.13;;;3.00;99.90;;;;;;5037975;28;20055;-68
2024/02/28 06:10:49;;;;;;;34.60;14.77;;;3.00;99.90;;;;;;5046015;28;20501;-68
2024/02/28 06:13:15;;;;;;;33.97;15.35;;;3.10;99.90;;;;;;5066655;28;20056;-68
2024/02/28 06:15:42;;;;;;;31.23;15.27;;;3.10;99.90;;;;;;5037940;28;20056;-68
2024/02/28 06:18:08;;;;;;;30.17;14.27;;;3.10;99.90;;;;;;5075500;28;20378;-68
2024/02/28 06:20:34;;;;;;;31.50;15.55;;;3.10;99.90;;;;;;5059277;28;20047;-68
2024/02/28 06:23:00;;;;;;;31.63;14.63;;;3.10;99.90;;;;;;5062158;28;20093;-68
2024/02/28 06:25:27;;;;;;;31.42;12.43;;;3.10;99.90;;;;;;5065536;28;20150;-68
2024/02/28 06:27:53;;;;;;;32.78;14.80;;;3.10;99.90;;;;;;5064839;28;20460;-68
2024/02/28 06:30:19;;;;;;;29.45;14.55;;;3.10;99.90;;;;;;5041949;28;20139;-69
2024/02/28 06:32:45;;;;;;;28.05;14.27;;;3.20;99.90;;;;;;5065209;28;20127;-68
2024/02/28 06:35:10;;;;;;;27.20;13.52;;;3.20;99.90;;;;;;5063966;28;20052;-68
2024/02/28 06:37:37;;;;;;;25.38;13.75;;;3.10;99.90;;;;;;5065758;28;20088;-69
2024/02/28 06:40:08;;;;;;;29.98;14.82;;;3.20;99.90;;;;;;5046202;28;20048;-68
2024/02/28 06:42:36;;;;;;;28.17;13.50;;;3.10;99.90;;;;;;5064114;28;20051;-68
2024/02/28 06:45:03;;;;;;;25.08;12.98;;;3.10;99.90;;;;;;5063067;28;20051;-68
2024/02/28 06:47:30;;;;;;;27.27;12.77;;;3.10;99.90;;;;;;5069081;28;20040;-68
2024/02/28 06:49:56;;;;;;;27.70;14.15;;;3.20;99.90;;;;;;5064537;28;20048;-68
2024/02/28 06:52:21;;;;;;;26.00;13.32;;;3.20;99.90;;;;;;5082677;28;20113;-68
2024/02/28 06:54:47;;;;;;;24.85;13.10;;;3.20;99.90;;;;;;5062349;28;20466;-68
2024/02/28 06:57:13;;;;;;;26.20;12.43;;;3.20;99.90;;;;;;5070302;28;20040;-68
2024/02/28 06:59:39;;;;;;;27.02;13.60;;;3.30;99.90;;;;;;5036644;28;20051;-69
2024/02/28 07:02:05;;;;;;;28.23;14.15;;;3.30;99.90;;;;;;5058746;28;20498;-68
2024/02/28 07:04:31;;;;;;;24.25;13.10;;;3.30;99.90;;;;;;5060686;28;20044;-68
2024/02/28 07:06:57;;;;;;;28.17;13.50;;;3.20;99.90;;;;;;5049125;28;20048;-68
2024/02/28 07:09:25;;;;;;;29.23;14.10;;;3.30;99.90;;;;;;5071210;28;20054;-68
2024/02/28 07:11:51;;;;;;;27.35;12.93;;;3.30;99.90;;;;;;5047348;28;20052;-68
2024/02/28 07:14:17;;;;;;;28.05;12.38;;;3.30;99.90;;;;;;5063668;28;20071;-68
2024/02/28 07:16:43;;;;;;;32.83;14.98;;;3.30;99.90;;;;;;5069657;28;20072;-68
2024/02/28 07:19:09;;;;;;;27.50;13.85;;;3.40;99.90;;;;;;5062054;28;20107;-68
2024/02/28 07:21:36;;;;;;;29.42;13.80;;;3.30;99.90;;;;;;5064113;28;20457;-68
2024/02/28 07:24:04;;;;;;;30.00;13.82;;;3.40;99.90;;;;;;5063727;28;20071;-69
2024/02/28 07:26:30;;;;;;;31.75;13.43;;;3.40;99.90;;;;;;5054768;28;20040;-69
2024/02/28 07:28:56;;;;;;;33.75;14.35;;;3.40;99.90;;;;;;5065553;28;20043;-68
2024/02/28 07:31:22;;;;;;;31.42;14.30;;;3.40;99.90;;;;;;5046386;28;21208;-69
2024/02/28 07:33:48;;;;;;;34.03;13.23;;;3.40;99.90;;;;;;5063759;28;20486;-68
2024/02/28 07:36:13;;;;;;;27.85;13.57;;;3.50;99.90;;;;;;5049488;28;20673;-68
2024/02/28 07:38:41;;;;;;;27.08;12.98;;;3.50;99.90;;;;;;5044115;28;20052;-68
2024/02/28 07:41:07;;;;;;;31.10;14.27;;;3.50;99.90;;;;;;5083421;28;20051;-68
2024/02/28 07:43:37;;;;;;;27.77;12.80;;;3.60;99.90;;;;;;5046089;28;20050;-68
2024/02/28 07:46:11;;;;;;;35.90;14.13;;;3.60;99.90;;;;;;5065908;28;20526;-68
2024/02/28 07:48:40;;;;;;;28.25;13.40;;;3.50;99.90;;;;;;5059191;28;20040;-68
2024/02/28 07:51:09;;;;;;;31.50;13.95;;;3.50;99.90;;;;;;5036943;28;20044;-69
2024/02/28 07:53:35;;;;;;;35.97;13.50;;;3.50;99.90;;;;;;5060110;28;20555;-69
2024/02/28 07:56:01;;;;;;;36.25;13.88;;;3.60;99.90;;;;;;5062528;28;20185;-68
2024/02/28 07:58:27;;;;;;;35.90;14.98;;;3.60;99.90;;;;;;5044973;28;20044;-68
2024/02/28 08:00:53;;;;;;;33.78;15.05;;;3.60;99.90;;;;;;5055895;28;20529;-68
2024/02/28 08:03:19;;;;;;;39.63;15.07;;;3.70;99.90;;;;;;5071238;28;20055;-68
2024/02/28 08:05:45;;;;;;;37.15;16.13;;;3.70;99.90;;;;;;5059487;28;20050;-68
2024/02/28 08:08:11;;;;;;;31.38;15.00;;;3.70;99.90;;;;;;5057455;28;20291;-69
2024/02/28 08:10:37;;;;;;;36.22;15.68;;;3.70;99.90;;;;;;5027850;28;20040;-68
2024/02/28 08:13:07;;;;;;;38.75;15.85;;;3.90;99.90;;;;;;5053130;28;20059;-69
2024/02/28 08:15:33;;;;;;;34.08;14.68;;;4.00;99.90;;;;;;5046838;28;20047;-69
2024/02/28 08:17:59;;;;;;;44.50;17.23;;;4.00;99.90;;;;;;5048073;28;20048;-68
2024/02/28 08:20:25;;;;;;;35.80;16.13;;;4.10;99.90;;;;;;5057849;28;20366;-68
2024/02/28 08:22:52;;;;;;;39.55;15.05;;;4.10;99.90;;;;;;5062254;28;20101;-68
2024/02/28 08:25:18;;;;;;;47.15;16.30;;;4.20;99.90;;;;;;5063379;28;21283;-68
2024/02/28 08:27:44;;;;;;;45.88;17.23;;;4.30;99.90;;;;;;5052700;28;20527;-68
2024/02/28 08:30:10;;;;;;;48.08;16.40;;;4.30;99.90;;;;;;5044184;28;20329;-68
2024/02/28 08:32:36;;;;;;;42.28;16.92;;;4.40;99.90;;;;;;5065338;28;20047;-68
2024/02/28 08:35:01;;;;;;;45.58;18.02;;;4.50;99.90;;;;;;5051852;28;20479;-69
2024/02/28 08:37:28;;;;;;;44.22;16.77;;;4.50;99.90;;;;;;5063401;28;20051;-68
2024/02/28 08:39:57;;;;;;;40.47;17.75;;;4.60;99.90;;;;;;5061619;28;20048;-68
2024/02/28 08:42:25;;;;;;;51.90;17.30;;;4.60;99.90;;;;;;5063816;28;20501;-69
2024/02/28 08:44:51;;;;;;;37.28;16.08;;;4.60;99.90;;;;;;5081406;28;20163;-69
2024/02/28 08:47:18;;;;;;;31.48;11.77;;;4.60;99.90;;;;;;5059514;28;20045;-69
2024/02/28 08:49:44;;;;;;;28.98;14.63;;;4.80;99.90;;;;;;5066276;28;20052;-68
2024/02/28 08:52:10;;;;;;;22.55;9.35;;;4.80;99.90;;;;;;5059662;28;20040;-68
2024/02/28 08:54:35;;;;;;;33.60;13.88;;;4.80;99.90;;;;;;5063968;28;20048;-68
2024/02/28 08:57:01;;;;;;;23.88;11.60;;;4.90;99.90;;;;;;5047217;28;20573;-68
2024/02/28 08:59:27;;;;;;;38.30;15.80;;;5.00;99.90;;;;;;5041580;28;20121;-68
2024/02/28 09:01:53;;;;;;;30.95;14.23;;;5.10;99.90;;;;;;5077878;28;20039;-68
2024/02/28 09:04:18;;;;;;;37.85;14.80;;;5.10;99.90;;;;;;5043957;28;20584;-69
2024/02/28 09:06:44;;;;;;;29.60;12.82;;;5.10;99.90;;;;;;5037065;28;20048;-68
2024/02/28 09:09:10;;;;;;;36.83;15.30;;;5.20;99.90;;;;;;5030890;28;20038;-68
2024/02/28 09:11:36;;;;;;;43.13;16.20;;;5.30;99.90;;;;;;5065960;28;20048;-68
2024/02/28 09:14:01;;;;;;;49.67;17.42;;;5.30;99.90;;;;;;5046569;28;20048;-68
2024/02/28 09:16:27;;;;;;;39.33;16.95;;;5.30;99.90;;;;;;5044631;28;20171;-68
2024/02/28 09:18:53;;;;;;;43.65;18.00;;;5.50;99.90;;;;;;5046165;28;20044;-68
2024/02/28 09:21:18;;;;;;;40.85;16.25;;;5.60;99.90;;;;;;5049651;28;20052;-68
2024/02/28 09:23:44;;;;;;;40.78;16.88;;;5.60;99.90;;;;;;5055067;28;20127;-68
2024/02/28 09:26:10;;;;;;;44.63;16.75;;;5.70;99.90;;;;;;5055516;28;20643;-69
2024/02/28 09:28:36;;;;;;;39.85;16.10;;;5.90;99.90;;;;;;5056969;28;20063;-69
2024/02/28 09:31:01;;;;;;;42.70;17.60;;;6.00;99.90;;;;;;5056631;28;20533;-68
2024/02/28 09:33:27;;;;;;;37.38;14.23;;;6.00;99.90;;;;;;5049442;28;20052;-68
2024/02/28 09:35:53;;;;;;;38.75;15.40;;;5.90;99.90;;;;;;5039658;28;20045;-70
2024/02/28 09:38:19;;;;;;;36.63;16.85;;;6.00;99.90;;;;;;5048964;28;20072;-68
2024/02/28 09:40:48;;;;;;;34.10;16.38;;;5.90;99.90;;;;;;5041648;28;20152;-68
2024/02/28 09:43:31;;;;;;;32.30;13.73;;;5.90;99.90;;;;;;5045794;28;20052;-68
2024/02/28 09:46:03;;;;;;;30.83;14.23;;;6.00;99.90;;;;;;5055463;28;20055;-68
2024/02/28 09:48:30;;;;;;;35.75;16.60;;;6.10;99.90;;;;;;5060753;28;20479;-69
2024/02/28 09:51:01;;;;;;;36.83;16.95;;;6.20;99.90;;;;;;5040027;28;20485;-68
2024/02/28 09:53:27;;;;;;;29.92;13.07;;;6.30;99.90;;;;;;5055120;28;20053;-69
2024/02/28 09:55:53;;;;;;;20.58;9.73;;;6.40;99.90;;;;;;5054330;28;20440;-69
2024/02/28 09:58:21;;;;;;;27.23;10.65;;;6.50;99.90;;;;;;5050025;28;20052;-69
2024/02/28 10:00:48;;;;;;;18.98;8.90;;;6.60;99.90;;;;;;5047338;28;20129;-69
2024/02/28 10:03:19;;;;;;;28.33;12.93;;;6.60;99.90;;;;;;5042544;28;20041;-70
2024/02/28 10:05:49;;;;;;;22.58;12.20;;;6.60;99.90;;;;;;5035952;28;20044;-69
2024/02/28 10:08:15;;;;;;;36.97;16.05;;;6.60;99.90;;;;;;5050689;28;20049;-69
2024/02/28 10:10:48;;;;;;;39.60;16.55;;;6.60;99.90;;;;;;5030092;28;20730;-70
2024/02/28 10:13:16;;;;;;;36.25;14.27;;;6.70;99.90;;;;;;5052579;28;20057;-69
2024/02/28 10:15:42;;;;;;;30.23;14.43;;;6.70;99.90;;;;;;5060628;28;20055;-69
2024/02/28 10:18:08;;;;;;;29.05;13.70;;;6.70;99.90;;;;;;5056784;28;20063;-69
2024/02/28 10:20:34;;;;;;;30.75;15.07;;;6.70;99.90;;;;;;5047025;28;20044;-69
2024/02/28 10:23:05;;;;;;;15.73;7.63;;;6.70;99.90;;;;;;5039712;28;20048;-69
2024/02/28 10:25:31;;;;;;;20.70;9.70;;;6.70;99.90;;;;;;5042771;28;20564;-69
2024/02/28 10:28:01;;;;;;;24.15;13.23;;;6.70;99.90;;;;;;5041498;28;20041;-69
2024/02/28 10:30:27;;;;;;;36.15;16.77;;;6.70;99.90;;;;;;5050064;28;20395;-69
2024/02/28 10:32:53;;;;;;;23.80;12.52;;;6.70;99.90;;;;;;5034401;28;20045;-69
2024/02/28 10:35:20;;;;;;;27.95;12.48;;;6.80;99.90;;;;;;5053412;28;20492;-69
2024/02/28 10:37:50;;;;;;;24.50;11.70;;;6.90;99.90;;;;;;5030892;28;20092;-69
2024/02/28 10:40:17;;;;;;;19.63;11.18;;;6.90;99.90;;;;;;5047794;28;20102;-69
2024/02/28 10:42:43;;;;;;;26.23;13.68;;;7.00;99.90;;;;;;5054882;28;20047;-69
2024/02/28 10:45:12;;;;;;;30.40;14.30;;;7.10;99.90;;;;;;5030475;28;20049;-69
2024/02/28 10:47:39;;;;;;;23.60;12.17;;;7.20;99.90;;;;;;5048257;28;20136;-69
2024/02/28 10:50:06;;;;;;;30.83;13.13;;;7.30;99.90;;;;;;5028915;28;20051;-69
2024/02/28 10:52:34;;;;;;;27.63;14.38;;;7.30;99.90;;;;;;5040509;28;20041;-69
2024/02/28 10:55:01;;;;;;;23.23;11.60;;;7.30;99.90;;;;;;5049560;28;20049;-69
2024/02/28 10:57:30;;;;;;;20.02;10.02;;;7.30;99.90;;;;;;5042252;28;20057;-69
2024/02/28 10:59:58;;;;;;;34.25;16.83;;;7.30;99.90;;;;;;5045140;28;20075;-69
2024/02/28 11:02:25;;;;;;;31.75;17.95;;;7.40;99.90;;;;;;5037655;28;20601;-69
2024/02/28 11:04:54;;;;;;;32.00;15.98;;;7.40;99.90;;;;;;5062669;28;20048;-69
2024/02/28 11:07:21;;;;;;;24.60;10.17;;;7.50;99.90;;;;;;5026841;28;20052;-69
2024/02/28 11:09:47;;;;;;;29.80;13.85;;;7.60;99.90;;;;;;5056369;28;20050;-69
2024/02/28 11:12:25;;;;;;;18.73;8.30;;;7.60;99.90;;;;;;5046146;28;20075;-69
2024/02/28 11:15:03;;;;;;;22.52;11.18;;;7.60;99.90;;;;;;5062329;28;20040;-69
2024/02/28 11:17:30;;;;;;;23.13;11.77;;;7.60;99.90;;;;;;5059616;28;20442;-69
2024/02/28 11:19:57;;;;;;;31.38;15.20;;;7.70;99.90;;;;;;5060017;28;20048;-69
2024/02/28 11:22:23;;;;;;;27.38;14.45;;;7.70;99.90;;;;;;5067376;28;20555;-69
2024/02/28 11:24:53;;;;;;;30.52;15.88;;;7.80;99.90;;;;;;5057124;28;20619;-68
2024/02/28 11:27:19;;;;;;;31.05;15.13;;;7.80;99.90;;;;;;5039359;28;20078;-69
2024/02/28 11:30:05;;;;;;;27.38;14.32;;;7.90;99.90;;;;;;5067016;28;20071;-69
2024/02/28 11:32:32;;;;;;;12.13;5.65;;;7.90;99.90;;;;;;5039682;28;20591;-69
2024/02/28 11:35:01;;;;;;;34.60;13.48;;;8.00;99.90;;;;;;5061417;28;20051;-69
2024/02/28 11:37:28;;;;;;;29.92;14.00;;;8.00;99.90;;;;;;5060212;28;20481;-69
2024/02/28 11:39:54;;;;;;;31.48;13.68;;;8.00;99.90;;;;;;5056316;28;20051;-69
2024/02/28 11:42:20;;;;;;;32.70;15.88;;;7.90;99.90;;;;;;5035270;28;20575;-69
2024/02/28 11:44:57;;;;;;;30.33;15.65;;;7.90;99.90;;;;;;5055451;28;20040;-69
2024/02/28 11:47:23;;;;;;;33.05;15.38;;;7.90;99.90;;;;;;5064376;28;20052;-69
2024/02/28 11:49:50;;;;;;;38.92;17.80;;;7.90;99.90;;;;;;5066989;28;20047;-68
2024/02/28 11:52:17;;;;;;;10.73;6.85;;;7.90;99.90;;;;;;5032078;28;20059;-69
2024/02/28 11:54:45;;;;;;;13.02;8.13;;;8.00;99.90;;;;;;5040596;28;20040;-69
2024/02/28 11:57:17;;;;;;;19.67;9.65;;;7.90;99.90;;;;;;5042515;28;20048;-69
2024/02/28 12:03:48;;;;;;;30.25;15.80;;;7.90;99.90;;;;;;5071753;22;20059;-69
2024/02/28 12:06:16;;;;;;;31.00;14.23;;;8.00;99.90;;;;;;5040147;28;20049;-69
2024/02/28 12:08:47;;;;;;;33.17;16.17;;;8.00;99.90;;;;;;5027509;28;20474;-69
2024/02/28 12:11:14;;;;;;;12.95;8.25;;;8.00;99.90;;;;;;5039549;28;20051;-69
2024/02/28 12:13:40;;;;;;;31.67;13.50;;;8.00;99.90;;;;;;5043444;28;20044;-68
2024/02/28 12:16:12;;;;;;;26.60;15.07;;;7.90;99.90;;;;;;5051365;28;20040;-68
2024/02/28 12:18:38;;;;;;;34.42;18.05;;;8.00;99.90;;;;;;5038049;28;20052;-69
2024/02/28 12:21:04;;;;;;;35.67;18.13;;;8.00;99.90;;;;;;5049557;28;20436;-68
2024/02/28 12:23:50;;;;;;;30.92;14.65;;;8.10;99.90;;;;;;5055553;28;20511;-68
2024/02/28 12:26:20;;;;;;;31.58;15.63;;;8.10;99.90;;;;;;5056051;28;20052;-69
2024/02/28 12:29:23;;;;;;;34.38;16.67;;;8.10;99.90;;;;;;5053469;28;20109;-69
2024/02/28 12:31:56;;;;;;;21.23;11.77;;;8.10;99.90;;;;;;5043698;28;20040;-68
2024/02/28 12:34:44;;;;;;;33.85;16.55;;;8.00;99.90;;;;;;5053361;28;20867;-69
2024/02/28 12:43:35;;;;;;;34.05;18.80;;;7.90;99.90;;;;;;5057111;22;20059;-68
2024/02/28 12:46:44;;;;;;;33.70;17.83;;;7.90;99.90;;;;;;5072904;22;20429;-68
2024/02/28 12:52:55;;;;;;;24.58;12.80;;;7.80;99.90;;;;;;5026846;28;20136;-68